createdAt,value
2023-03-17T00:01:14.236Z,2.60
2023-03-17T00:03:42.531Z,2.40
2023-03-17T00:06:14.805Z,2.10
2023-03-17T00:08:42.456Z,2.60
2023-03-17T00:11:13.604Z,2.10
2023-03-17T00:13:46.113Z,2.10
2023-03-17T00:16:20.986Z,2.33
2023-03-17T00:18:49.237Z,2.33
2023-03-17T00:21:17.946Z,2.30
2023-03-17T00:23:47.478Z,2.27
2023-03-17T00:26:15.141Z,2.33
2023-03-17T00:28:42.841Z,2.40
2023-03-17T00:31:14.906Z,2.30
2023-03-17T00:33:42.750Z,2.43
2023-03-17T00:36:14.381Z,2.10
2023-03-17T00:38:41.929Z,2.50
2023-03-17T00:41:09.775Z,2.40
2023-03-17T00:43:37.313Z,2.10
2023-03-17T00:46:15.143Z,2.33
2023-03-17T00:48:45.822Z,2.37
2023-03-17T00:51:13.729Z,2.30
2023-03-17T00:53:41.204Z,1.97
2023-03-17T00:56:13.549Z,2.17
2023-03-17T00:58:41.119Z,1.97
2023-03-17T01:01:08.991Z,2.30
2023-03-17T01:03:37.008Z,2.50
2023-03-17T01:06:05.516Z,2.63
2023-03-17T01:08:33.188Z,2.03
2023-03-17T01:11:00.840Z,2.30
2023-03-17T01:13:28.382Z,2.33
2023-03-17T01:15:55.991Z,3.53
2023-03-17T01:18:24.025Z,2.33
2023-03-17T01:20:51.915Z,2.57
2023-03-17T01:23:19.748Z,2.60
2023-03-17T01:25:47.277Z,2.50
2023-03-17T01:28:15.725Z,2.53
2023-03-17T01:30:43.265Z,2.40
2023-03-17T01:33:11.575Z,2.87
2023-03-17T01:35:39.736Z,2.33
2023-03-17T01:38:07.401Z,2.40
2023-03-17T01:40:36.127Z,2.63
2023-03-17T01:43:06.804Z,2.47
2023-03-17T01:45:53.132Z,2.50
2023-03-17T01:48:22.291Z,2.40
2023-03-17T01:50:50.264Z,3.00
2023-03-17T01:53:18.552Z,2.60
2023-03-17T01:55:46.033Z,2.43
2023-03-17T01:58:15.525Z,3.10
2023-03-17T02:00:43.188Z,3.03
2023-03-17T02:03:10.706Z,2.20
2023-03-17T02:05:39.309Z,3.27
2023-03-17T02:08:13.891Z,3.00
2023-03-17T02:10:42.231Z,2.97
2023-03-17T02:13:11.786Z,2.47
2023-03-17T02:15:46.456Z,2.30
2023-03-17T02:18:14.241Z,3.30
2023-03-17T02:20:41.675Z,2.90
2023-03-17T02:23:09.238Z,2.60
2023-03-17T02:25:37.216Z,2.80
2023-03-17T02:28:09.514Z,2.70
2023-03-17T02:30:37.416Z,3.03
2023-03-17T02:33:05.080Z,3.00
2023-03-17T02:35:32.712Z,2.87
2023-03-17T02:38:00.227Z,2.43
2023-03-17T02:40:28.011Z,3.10
2023-03-17T02:42:55.898Z,3.83
2023-03-17T02:45:23.849Z,2.90
2023-03-17T02:47:52.114Z,2.70
2023-03-17T02:50:24.103Z,2.40
2023-03-17T02:52:51.961Z,2.60
2023-03-17T02:55:19.796Z,3.00
2023-03-17T02:57:47.376Z,2.73
2023-03-17T03:00:15.057Z,2.70
2023-03-17T03:02:42.793Z,2.80
2023-03-17T03:05:10.453Z,2.47
2023-03-17T03:07:38.053Z,2.50
2023-03-17T03:10:05.922Z,2.83
2023-03-17T03:12:33.484Z,3.17
2023-03-17T03:15:00.957Z,2.83
2023-03-17T03:17:28.514Z,2.60
2023-03-17T03:19:56.014Z,2.57
2023-03-17T03:22:23.567Z,2.97
2023-03-17T03:24:51.080Z,3.07
2023-03-17T03:27:18.659Z,3.20
2023-03-17T03:29:46.144Z,2.80
2023-03-17T03:32:13.744Z,3.30
2023-03-17T03:34:41.234Z,2.77
2023-03-17T03:37:08.911Z,3.03
2023-03-17T03:39:36.427Z,3.00
2023-03-17T03:42:04.047Z,4.03
2023-03-17T03:44:31.551Z,3.00
2023-03-17T03:46:59.111Z,3.30
2023-03-17T03:49:26.632Z,2.90
2023-03-17T03:51:54.223Z,3.03
2023-03-17T03:54:21.684Z,3.20
2023-03-17T03:56:49.186Z,2.80
2023-03-17T03:59:16.673Z,3.20
2023-03-17T04:01:44.400Z,3.10
2023-03-17T04:04:11.871Z,3.00
2023-03-17T04:06:39.427Z,3.20
2023-03-17T04:09:06.924Z,3.30
2023-03-17T04:11:34.518Z,3.50
2023-03-17T04:14:02.121Z,2.67
2023-03-17T04:16:29.757Z,2.73
2023-03-17T04:18:57.354Z,2.60
2023-03-17T04:21:24.917Z,3.33
2023-03-17T04:23:52.470Z,2.77
2023-03-17T04:26:20.115Z,3.00
2023-03-17T04:28:47.609Z,3.37
2023-03-17T04:31:15.225Z,2.93
2023-03-17T04:33:42.706Z,3.47
2023-03-17T04:36:15.981Z,2.67
2023-03-17T04:38:43.529Z,2.77
2023-03-17T04:41:11.008Z,2.90
2023-03-17T04:43:38.578Z,2.93
2023-03-17T04:46:06.121Z,2.90
2023-03-17T04:48:33.737Z,2.97
2023-03-17T04:51:01.232Z,3.37
2023-03-17T04:53:28.745Z,3.10
2023-03-17T04:55:56.263Z,3.40
2023-03-17T04:58:30.891Z,3.07
2023-03-17T05:00:59.079Z,3.40
2023-03-17T05:03:27.946Z,3.07
2023-03-17T05:05:55.861Z,3.37
2023-03-17T05:08:23.413Z,2.90
2023-03-17T05:10:51.309Z,3.43
2023-03-17T05:13:18.804Z,3.20
2023-03-17T05:15:50.362Z,3.57
2023-03-17T05:18:18.431Z,3.27
2023-03-17T05:20:46.172Z,3.40
2023-03-17T05:23:13.841Z,2.80
2023-03-17T05:25:41.327Z,3.50
2023-03-17T05:28:09.395Z,3.43
2023-03-17T05:30:37.089Z,3.17
2023-03-17T05:33:05.084Z,3.00
2023-03-17T05:35:33.024Z,3.40
2023-03-17T05:38:00.670Z,2.80
2023-03-17T05:40:28.328Z,3.40
2023-03-17T05:42:55.979Z,2.83
2023-03-17T05:45:23.505Z,2.93
2023-03-17T05:47:51.135Z,3.60
2023-03-17T05:50:18.755Z,3.33
2023-03-17T05:52:46.353Z,3.37
2023-03-17T05:55:13.897Z,3.17
2023-03-17T05:57:41.502Z,3.77
2023-03-17T06:00:11.723Z,3.80
2023-03-17T06:02:40.372Z,3.60
2023-03-17T06:05:08.168Z,3.40
2023-03-17T06:07:50.765Z,3.40
2023-03-17T06:10:20.876Z,3.60
2023-03-17T06:12:48.471Z,3.90
2023-03-17T06:15:16.085Z,3.83
2023-03-17T06:17:43.646Z,3.77
2023-03-17T06:20:11.546Z,3.83
2023-03-17T06:22:46.282Z,3.93
2023-03-17T06:25:19.509Z,3.87
2023-03-17T06:27:46.993Z,4.10
2023-03-17T06:30:14.682Z,3.63
2023-03-17T06:32:42.258Z,4.03
2023-03-17T06:35:09.997Z,4.47
2023-03-17T06:37:37.508Z,3.30
2023-03-17T06:40:05.950Z,3.70
2023-03-17T06:42:33.459Z,3.90
2023-03-17T06:45:01.034Z,3.70
2023-03-17T06:47:28.519Z,3.97
2023-03-17T06:49:56.057Z,3.47
2023-03-17T06:52:23.568Z,3.50
2023-03-17T06:54:51.187Z,3.43
2023-03-17T06:57:18.770Z,3.83
2023-03-17T06:59:46.386Z,3.57
2023-03-17T07:02:13.968Z,3.63
2023-03-17T07:04:41.765Z,3.93
2023-03-17T07:07:09.370Z,3.60
2023-03-17T07:09:36.982Z,4.13
2023-03-17T07:12:04.692Z,3.83
2023-03-17T07:14:33.002Z,3.50
2023-03-17T07:17:00.775Z,4.00
2023-03-17T07:19:28.518Z,3.47
2023-03-17T07:21:56.083Z,3.80
2023-03-17T07:24:23.934Z,3.10
2023-03-17T07:26:51.614Z,3.30
2023-03-17T07:29:19.196Z,3.20
2023-03-17T07:31:46.737Z,3.20
2023-03-17T07:34:14.340Z,3.40
2023-03-17T07:36:41.897Z,3.20
2023-03-17T07:39:11.849Z,3.07
2023-03-17T07:41:39.603Z,3.37
2023-03-17T07:44:07.148Z,3.20
2023-03-17T07:46:34.770Z,3.43
2023-03-17T07:49:02.253Z,3.20
2023-03-17T07:51:29.867Z,3.30
2023-03-17T07:53:57.355Z,3.23
2023-03-17T07:56:25.056Z,3.47
2023-03-17T07:58:52.554Z,3.60
2023-03-17T08:01:20.111Z,3.53
2023-03-17T08:03:47.666Z,3.10
2023-03-17T08:06:15.238Z,3.30
2023-03-17T08:08:42.791Z,3.23
2023-03-17T08:11:10.366Z,2.60
2023-03-17T08:13:37.913Z,3.43
2023-03-17T08:16:05.706Z,3.20
2023-03-17T08:18:33.358Z,3.10
2023-03-17T08:21:00.916Z,3.77
2023-03-17T08:23:28.549Z,3.07
2023-03-17T08:25:59.834Z,3.43
2023-03-17T08:28:27.395Z,3.40
2023-03-17T08:30:55.085Z,3.13
2023-03-17T08:33:22.781Z,2.90
2023-03-17T08:35:50.803Z,2.67
2023-03-17T08:38:18.379Z,3.00
2023-03-17T08:40:45.874Z,3.00
2023-03-17T08:43:13.420Z,3.43
2023-03-17T08:45:41.016Z,2.57
2023-03-17T08:48:08.599Z,2.53
2023-03-17T08:50:36.148Z,2.63
2023-03-17T08:53:03.656Z,2.60
2023-03-17T08:55:31.145Z,3.27
2023-03-17T08:57:58.682Z,2.77
2023-03-17T09:00:26.230Z,3.17
2023-03-17T09:02:54.012Z,2.90
2023-03-17T09:05:21.570Z,2.87
2023-03-17T09:07:49.144Z,2.53
2023-03-17T09:10:16.840Z,2.53
2023-03-17T09:12:44.449Z,3.13
2023-03-17T09:15:12.641Z,2.73
2023-03-17T09:17:40.380Z,2.73
2023-03-17T09:20:08.241Z,2.90
2023-03-17T09:22:35.884Z,2.70
2023-03-17T09:25:03.655Z,2.57
2023-03-17T09:27:31.210Z,2.50
2023-03-17T09:29:58.744Z,2.20
2023-03-17T09:32:26.351Z,2.73
2023-03-17T09:34:53.893Z,2.30
2023-03-17T09:37:21.471Z,2.47
2023-03-17T09:39:49.114Z,2.43
2023-03-17T09:42:19.627Z,2.60
2023-03-17T09:45:10.361Z,3.00
2023-03-17T09:47:56.772Z,2.80
2023-03-17T09:50:56.698Z,2.67
2023-03-17T09:53:27.499Z,2.90
2023-03-17T09:55:59.024Z,2.63
2023-03-17T09:58:30.076Z,2.70
2023-03-17T10:00:57.687Z,2.50
2023-03-17T10:03:26.066Z,2.70
2023-03-17T10:05:54.701Z,3.13
2023-03-17T10:08:31.524Z,2.30
2023-03-17T10:11:08.924Z,2.53
2023-03-17T10:13:36.551Z,3.20
2023-03-17T10:16:07.666Z,2.77
2023-03-17T10:18:41.252Z,2.87
2023-03-17T10:21:12.024Z,2.50
2023-03-17T10:23:39.603Z,2.80
2023-03-17T10:26:19.975Z,2.40
2023-03-17T10:28:47.554Z,2.07
2023-03-17T10:31:19.171Z,2.57
2023-03-17T10:33:51.222Z,2.50
2023-03-17T10:36:32.270Z,2.63
2023-03-17T10:38:59.813Z,2.90
2023-03-17T10:41:29.734Z,2.43
2023-03-17T10:43:58.386Z,2.90
2023-03-17T10:46:26.891Z,2.30
2023-03-17T10:48:57.043Z,2.87
2023-03-17T10:51:32.893Z,2.40
2023-03-17T10:54:01.821Z,2.80
2023-03-17T10:56:30.020Z,2.30
2023-03-17T10:58:57.917Z,2.43
2023-03-17T11:01:41.788Z,2.40
2023-03-17T11:04:21.641Z,2.47
2023-03-17T11:06:50.981Z,2.30
2023-03-17T11:09:19.253Z,2.60
2023-03-17T11:11:48.397Z,2.73
2023-03-17T11:14:17.519Z,2.70
2023-03-17T11:17:05.325Z,2.40
2023-03-17T11:19:50.947Z,2.57
2023-03-17T11:22:28.087Z,2.90
2023-03-17T11:25:04.989Z,2.70
2023-03-17T11:27:32.588Z,2.40
2023-03-17T11:30:13.542Z,2.20
2023-03-17T11:32:48.121Z,2.37
2023-03-17T11:35:21.689Z,2.70
2023-03-17T11:38:04.234Z,2.37
2023-03-17T11:40:36.349Z,2.93
2023-03-17T11:43:15.897Z,3.00
2023-03-17T11:45:43.458Z,2.10
2023-03-17T11:48:20.720Z,2.80
2023-03-17T11:50:54.465Z,2.20
2023-03-17T11:53:24.826Z,2.43
2023-03-17T11:55:55.685Z,2.20
2023-03-17T11:58:33.550Z,2.50
2023-03-17T12:01:02.138Z,2.00
2023-03-17T12:04:08.659Z,2.17
2023-03-17T12:06:39.078Z,2.00
2023-03-17T12:09:09.142Z,2.03
2023-03-17T12:11:39.485Z,2.10
2023-03-17T12:14:08.341Z,2.77
2023-03-17T12:16:38.316Z,2.03
2023-03-17T12:19:05.887Z,2.17
2023-03-17T12:21:37.373Z,1.90
2023-03-17T12:24:11.398Z,2.27
2023-03-17T12:26:38.931Z,2.17
2023-03-17T12:29:14.602Z,2.30
2023-03-17T12:31:45.219Z,2.37
2023-03-17T12:34:12.824Z,2.10
2023-03-17T12:36:40.869Z,2.03
2023-03-17T12:39:16.598Z,2.07
2023-03-17T12:42:02.908Z,2.30
2023-03-17T12:44:49.316Z,2.20
2023-03-17T12:47:22.873Z,2.20
2023-03-17T12:49:50.374Z,1.93
2023-03-17T12:52:20.689Z,2.33
2023-03-17T12:54:50.283Z,2.27
2023-03-17T12:57:37.984Z,1.80
2023-03-17T13:00:07.780Z,1.97
2023-03-17T13:02:39.289Z,2.10
2023-03-17T13:05:10.697Z,2.60
2023-03-17T13:07:47.158Z,2.13
2023-03-17T13:10:35.208Z,2.10
2023-03-17T13:13:26.045Z,2.20
2023-03-17T13:15:55.168Z,2.23
2023-03-17T13:18:27.794Z,1.90
2023-03-17T13:20:58.471Z,1.93
2023-03-17T13:23:35.386Z,1.70
2023-03-17T13:26:03.021Z,2.00
2023-03-17T13:28:50.767Z,1.73
2023-03-17T13:31:28.470Z,2.23
2023-03-17T13:33:56.997Z,2.00
2023-03-17T13:36:27.536Z,1.77
2023-03-17T13:39:15.095Z,2.10
2023-03-17T13:41:42.639Z,1.90
2023-03-17T13:44:15.468Z,2.00
2023-03-17T13:46:46.835Z,2.13
2023-03-17T13:49:23.221Z,2.30
2023-03-17T13:51:59.446Z,1.80
2023-03-17T13:54:28.131Z,1.60
2023-03-17T13:56:56.577Z,2.20
2023-03-17T13:59:47.205Z,1.80
2023-03-17T14:02:16.256Z,2.27
2023-03-17T14:04:46.531Z,1.90
2023-03-17T14:07:19.712Z,2.03
2023-03-17T14:09:47.257Z,2.13
2023-03-17T14:12:27.486Z,1.90
2023-03-17T14:15:03.200Z,2.00
2023-03-17T14:17:33.497Z,2.07
2023-03-17T14:20:03.158Z,1.93
2023-03-17T14:22:30.701Z,1.60
2023-03-17T14:25:01.149Z,2.10
2023-03-17T14:27:30.790Z,1.90
2023-03-17T14:30:05.149Z,1.70
2023-03-17T14:32:32.752Z,1.90
2023-03-17T14:35:00.304Z,1.87
2023-03-17T14:37:28.420Z,1.70
2023-03-17T14:39:56.716Z,2.03
2023-03-17T14:42:28.655Z,1.60
2023-03-17T14:45:02.253Z,1.90
2023-03-17T14:47:32.050Z,1.97
2023-03-17T14:50:02.114Z,1.53
2023-03-17T14:52:32.682Z,2.07
2023-03-17T14:55:00.731Z,1.67
2023-03-17T14:57:29.512Z,1.80
2023-03-17T15:00:01.332Z,1.67
2023-03-17T15:02:33.792Z,2.33
2023-03-17T15:05:04.492Z,2.00
2023-03-17T15:07:36.459Z,1.90
2023-03-17T15:10:05.467Z,2.10
2023-03-17T15:12:33.052Z,1.73
2023-03-17T15:15:05.609Z,2.03
2023-03-17T15:17:35.764Z,2.10
2023-03-17T15:20:05.990Z,2.10
2023-03-17T15:22:36.541Z,1.53
2023-03-17T15:25:04.104Z,1.77
2023-03-17T15:27:32.264Z,1.87
2023-03-17T15:29:59.989Z,1.83
2023-03-17T15:32:28.368Z,1.70
2023-03-17T15:34:56.822Z,1.60
2023-03-17T15:37:29.369Z,1.60
2023-03-17T15:39:57.458Z,1.77
2023-03-17T15:42:26.612Z,1.80
2023-03-17T15:44:54.719Z,1.53
2023-03-17T15:47:23.250Z,2.30
2023-03-17T15:49:51.176Z,2.00
2023-03-17T15:52:20.461Z,1.90
2023-03-17T15:54:48.487Z,1.90
2023-03-17T15:57:16.019Z,1.87
2023-03-17T15:59:44.009Z,1.87
2023-03-17T16:02:31.786Z,2.00
2023-03-17T16:05:00.404Z,2.33
2023-03-17T16:07:27.884Z,2.00
2023-03-17T16:09:55.593Z,1.77
2023-03-17T16:12:23.146Z,2.23
2023-03-17T16:14:50.758Z,2.10
2023-03-17T16:17:26.900Z,1.83
2023-03-17T16:19:54.601Z,2.23
2023-03-17T16:22:42.361Z,1.70
2023-03-17T16:25:20.742Z,2.00
2023-03-17T16:27:49.308Z,1.90
2023-03-17T16:30:21.237Z,2.17
2023-03-17T16:32:49.679Z,1.77
2023-03-17T16:35:21.202Z,1.60
2023-03-17T16:37:49.247Z,1.73
2023-03-17T16:40:18.214Z,1.70
2023-03-17T16:42:45.914Z,1.80
2023-03-17T16:45:25.734Z,1.87
2023-03-17T16:47:53.576Z,1.60
2023-03-17T16:50:22.364Z,1.90
2023-03-17T16:52:50.132Z,2.30
2023-03-17T16:55:18.204Z,2.50
2023-03-17T16:57:50.016Z,1.83
2023-03-17T17:00:25.437Z,1.90
2023-03-17T17:02:53.273Z,1.60
2023-03-17T17:05:22.783Z,1.50
2023-03-17T17:07:50.937Z,1.77
2023-03-17T17:10:19.243Z,1.50
2023-03-17T17:12:47.169Z,1.73
2023-03-17T17:15:15.676Z,2.10
2023-03-17T17:17:45.577Z,1.53
2023-03-17T17:20:17.763Z,2.23
2023-03-17T17:22:45.342Z,1.60
2023-03-17T17:25:12.840Z,1.67
2023-03-17T17:27:41.598Z,1.80
2023-03-17T17:30:11.342Z,2.20
2023-03-17T17:32:39.288Z,1.93
2023-03-17T17:35:07.145Z,2.43
2023-03-17T17:37:35.254Z,1.93
2023-03-17T17:40:02.819Z,2.13
2023-03-17T17:42:30.629Z,1.60
2023-03-17T17:44:58.153Z,2.03
2023-03-17T17:47:25.698Z,1.47
2023-03-17T17:49:53.500Z,1.90
2023-03-17T17:52:21.037Z,2.27
2023-03-17T17:54:48.603Z,1.93
2023-03-17T17:57:16.131Z,2.17
2023-03-17T17:59:43.919Z,2.40
2023-03-17T18:02:13.115Z,2.17
2023-03-17T18:04:42.061Z,2.17
2023-03-17T18:07:10.252Z,2.33
2023-03-17T18:09:38.066Z,2.10
2023-03-17T18:12:05.971Z,2.10
2023-03-17T18:14:33.480Z,2.43
2023-03-17T18:17:01.262Z,2.37
2023-03-17T18:19:28.829Z,1.90
2023-03-17T18:21:57.150Z,2.20
2023-03-17T18:24:24.657Z,2.00
2023-03-17T18:26:52.330Z,2.10
2023-03-17T18:29:19.804Z,2.37
2023-03-17T18:31:48.854Z,2.77
2023-03-17T18:34:18.998Z,2.50
2023-03-17T18:36:47.164Z,2.50
2023-03-17T18:39:15.448Z,2.50
2023-03-17T18:41:43.593Z,1.93
2023-03-17T18:44:11.185Z,2.40
2023-03-17T18:46:38.727Z,2.30
2023-03-17T18:49:06.943Z,2.90
2023-03-17T18:51:34.686Z,2.33
2023-03-17T18:54:02.293Z,2.60
2023-03-17T18:56:29.755Z,2.70
2023-03-17T18:58:57.938Z,2.40
2023-03-17T19:01:25.956Z,2.00
2023-03-17T19:03:53.538Z,2.17
2023-03-17T19:06:22.559Z,2.27
2023-03-17T19:08:50.184Z,2.30
2023-03-17T19:11:18.502Z,2.87
2023-03-17T19:13:46.135Z,1.97
2023-03-17T19:16:14.149Z,2.10
2023-03-17T19:18:42.210Z,2.43
2023-03-17T19:21:10.523Z,2.57
2023-03-17T19:23:38.574Z,2.40
2023-03-17T19:26:06.475Z,2.37
2023-03-17T19:28:34.014Z,2.73
2023-03-17T19:31:01.793Z,2.40
2023-03-17T19:33:29.342Z,2.50
2023-03-17T19:35:57.627Z,3.00
2023-03-17T19:38:25.641Z,2.70
2023-03-17T19:40:53.663Z,2.30
2023-03-17T19:43:39.038Z,2.50
2023-03-17T19:46:07.363Z,2.77
2023-03-17T19:48:34.890Z,2.40
2023-03-17T19:51:02.490Z,2.50
2023-03-17T19:53:30.022Z,2.57
2023-03-17T19:55:57.592Z,2.47
2023-03-17T19:58:25.123Z,3.07
2023-03-17T20:00:52.762Z,2.60
2023-03-17T20:03:20.248Z,2.43
2023-03-17T20:05:47.769Z,2.73
2023-03-17T20:08:15.292Z,2.23
2023-03-17T20:10:42.927Z,3.17
2023-03-17T20:13:10.556Z,2.60
2023-03-17T20:15:41.318Z,2.40
2023-03-17T20:18:08.919Z,2.53
2023-03-17T20:20:36.442Z,2.60
2023-03-17T20:23:04.034Z,2.40
2023-03-17T20:25:31.543Z,2.87
2023-03-17T20:27:59.113Z,2.70
2023-03-17T20:30:26.606Z,2.50
2023-03-17T20:32:54.257Z,2.77
2023-03-17T20:35:21.831Z,2.73
2023-03-17T20:37:49.444Z,2.87
2023-03-17T20:40:17.012Z,2.60
2023-03-17T20:42:44.609Z,2.20
2023-03-17T20:45:12.107Z,2.37
2023-03-17T20:47:39.746Z,2.93
2023-03-17T20:50:07.827Z,2.97
2023-03-17T20:52:35.372Z,2.80
2023-03-17T20:55:03.479Z,2.73
2023-03-17T20:57:31.063Z,2.40
2023-03-17T20:59:58.643Z,2.60
2023-03-17T21:02:26.424Z,2.70
2023-03-17T21:04:53.964Z,2.57
2023-03-17T21:07:22.334Z,2.70
2023-03-17T21:09:49.854Z,2.80
2023-03-17T21:12:19.243Z,2.60
2023-03-17T21:14:47.658Z,2.77
2023-03-17T21:17:15.636Z,2.90
2023-03-17T21:19:43.177Z,2.73
2023-03-17T21:22:10.779Z,3.00
2023-03-17T21:24:38.845Z,2.83
2023-03-17T21:27:07.304Z,3.10
2023-03-17T21:29:34.996Z,2.73
2023-03-17T21:32:02.836Z,3.27
2023-03-17T21:34:31.426Z,3.10
2023-03-17T21:36:59.777Z,2.53
2023-03-17T21:39:29.620Z,3.10
2023-03-17T21:41:57.863Z,3.03
2023-03-17T21:44:25.399Z,2.57
2023-03-17T21:46:53.308Z,2.87
2023-03-17T21:49:20.970Z,2.90
2023-03-17T21:51:48.508Z,2.53
2023-03-17T21:54:16.182Z,2.67
2023-03-17T21:56:44.181Z,2.27
2023-03-17T21:59:11.997Z,3.10
2023-03-17T22:01:39.744Z,2.63
2023-03-17T22:04:07.645Z,3.30
2023-03-17T22:06:35.211Z,2.70
2023-03-17T22:09:03.434Z,2.90
2023-03-17T22:11:31.081Z,2.63
2023-03-17T22:13:59.126Z,3.00
2023-03-17T22:16:26.742Z,2.97
2023-03-17T22:18:54.432Z,2.97
2023-03-17T22:21:22.332Z,3.53
2023-03-17T22:23:50.097Z,3.33
2023-03-17T22:26:18.774Z,2.90
2023-03-17T22:28:47.191Z,2.80
2023-03-17T22:31:19.152Z,3.07
2023-03-17T22:33:47.571Z,3.40
2023-03-17T22:36:15.493Z,3.30
2023-03-17T22:38:43.280Z,2.93
2023-03-17T22:41:13.971Z,3.07
2023-03-17T22:43:41.535Z,2.87
2023-03-17T22:46:09.733Z,3.50
2023-03-17T22:48:37.585Z,3.00
2023-03-17T22:51:06.326Z,2.60
2023-03-17T22:53:34.221Z,2.97
2023-03-17T22:56:01.823Z,3.10
2023-03-17T22:58:29.677Z,3.53
2023-03-17T23:00:57.217Z,3.63
2023-03-17T23:03:25.830Z,2.73
2023-03-17T23:05:55.330Z,2.80
2023-03-17T23:08:22.957Z,3.13
2023-03-17T23:10:53.563Z,3.17
2023-03-17T23:13:21.411Z,2.90
2023-03-17T23:15:49.298Z,3.10
2023-03-17T23:18:17.324Z,3.07
2023-03-17T23:20:44.908Z,3.13
2023-03-17T23:23:12.547Z,2.57
2023-03-17T23:25:40.310Z,3.17
2023-03-17T23:28:08.535Z,3.40
2023-03-17T23:30:36.564Z,2.97
2023-03-17T23:33:04.543Z,2.93
2023-03-17T23:35:32.534Z,3.07
2023-03-17T23:38:00.230Z,3.47
2023-03-17T23:40:28.061Z,2.90
2023-03-17T23:42:55.961Z,3.50
2023-03-17T23:45:23.768Z,3.27
2023-03-17T23:47:52.316Z,2.80
2023-03-17T23:50:20.360Z,3.20
2023-03-17T23:52:48.214Z,3.23
2023-03-17T23:55:16.600Z,3.00
2023-03-17T23:57:44.398Z,3.33
